首页
METAR-TAF:

METAR-TAF

机场 :

哥本哈根凯斯楚普机场

哥本哈根, 丹麦

纬度: 55-37N, 经度: 012-39E, 海拔: 5米

当前天气观测

该预报发布于34分钟前的10:20 UTC
风速18节,风向东南
温度 14°C
湿度 55%
气压 1010 hPa
能见度10公里或以上

METAR: EKCH 241020Z AUTO 13018KT 9999NDV BKN052/// 14/05 Q1010 NOSIG

时间: 12:54 (10:54 UTC)

预报

该预报发布于5小时和45分钟前的05:09 UTC
预报有效从24日的 06点(UTC)到 25日的 06点(UTC)
风速15节,风向
能见度10公里或以上
少量云层高于4000英尺
短暂存在
从 24日的 06点(UTC)到 24日的 16点(UTC)
风速18节,风向东转东南,有时为28节阵风

TAF: EKCH 240509Z 2406/2506 10015KT 9999 FEW040 TEMPO 2406/2416 12018G28KT

超过4000个机场的气象观测和天气预报(METAR&TAF报告)。

可查询的气象台以黄色和红色小点在地图上表示。

将鼠标移到小点上方,可查看气象台名称。

然后点击查看天气观测和预报。

如需切换地图:点击带黑十字的绿色按钮放大地图;点击带横线的绿色按钮缩小地图;或者点击绿色箭头查看邻近地区的地图。


METAR-TAF: